sensor_id;sensor_type;location;lat;lon;timestamp;temperature;humidity
11664;DHT22;72375;59.302;18.204;2024-03-29T00:00:21;9.20;99.90
11664;DHT22;72375;59.302;18.204;2024-03-29T00:03:06;9.20;99.90
11664;DHT22;72375;59.302;18.204;2024-03-29T00:05:50;9.20;99.90
11664;DHT22;72375;59.302;18.204;2024-03-29T00:08:35;9.20;99.90
11664;DHT22;72375;59.302;18.204;2024-03-29T00:11:21;9.10;99.90
11664;DHT22;72375;59.302;18.204;2024-03-29T00:14:05;9.10;99.90
11664;DHT22;72375;59.302;18.204;2024-03-29T00:16:50;9.10;99.90
11664;DHT22;72375;59.302;18.204;2024-03-29T00:19:34;9.10;99.90
11664;DHT22;72375;59.302;18.204;2024-03-29T00:22:19;9.10;99.90
11664;DHT22;72375;59.302;18.204;2024-03-29T00:25:04;9.10;99.90
11664;DHT22;72375;59.302;18.204;2024-03-29T00:27:51;9.10;99.90
11664;DHT22;72375;59.302;18.204;2024-03-29T00:30:35;9.10;99.90
11664;DHT22;72375;59.302;18.204;2024-03-29T00:33:20;9.10;99.90
11664;DHT22;72375;59.302;18.204;2024-03-29T00:36:05;9.00;99.90
11664;DHT22;72375;59.302;18.204;2024-03-29T00:38:49;9.00;99.90
11664;DHT22;72375;59.302;18.204;2024-03-29T00:41:34;9.00;99.90
11664;DHT22;72375;59.302;18.204;2024-03-29T00:44:20;9.00;99.90
11664;DHT22;72375;59.302;18.204;2024-03-29T00:47:04;9.00;99.90
11664;DHT22;72375;59.302;18.204;2024-03-29T00:49:49;9.00;99.90
11664;DHT22;72375;59.302;18.204;2024-03-29T00:52:34;8.90;99.90
11664;DHT22;72375;59.302;18.204;2024-03-29T00:55:19;8.90;99.90
11664;DHT22;72375;59.302;18.204;2024-03-29T00:58:04;8.90;99.90
11664;DHT22;72375;59.302;18.204;2024-03-29T01:00:50;8.90;99.90
11664;DHT22;72375;59.302;18.204;2024-03-29T01:03:34;8.90;99.90
11664;DHT22;72375;59.302;18.204;2024-03-29T01:06:20;8.90;99.90
11664;DHT22;72375;59.302;18.204;2024-03-29T01:09:04;8.90;99.90
11664;DHT22;72375;59.302;18.204;2024-03-29T01:11:50;8.90;99.90
11664;DHT22;72375;59.302;18.204;2024-03-29T01:14:35;8.90;99.90
11664;DHT22;72375;59.302;18.204;2024-03-29T01:17:21;8.90;99.90
11664;DHT22;72375;59.302;18.204;2024-03-29T01:20:06;8.90;99.90
11664;DHT22;72375;59.302;18.204;2024-03-29T01:22:51;8.80;99.90
11664;DHT22;72375;59.302;18.204;2024-03-29T01:25:35;8.80;99.90
11664;DHT22;72375;59.302;18.204;2024-03-29T01:28:20;8.80;99.90
11664;DHT22;72375;59.302;18.204;2024-03-29T01:31:05;8.80;99.90
11664;DHT22;72375;59.302;18.204;2024-03-29T01:33:51;8.80;99.90
11664;DHT22;72375;59.302;18.204;2024-03-29T01:36:36;8.80;99.90
11664;DHT22;72375;59.302;18.204;2024-03-29T01:39:21;8.80;99.90
11664;DHT22;72375;59.302;18.204;2024-03-29T01:42:05;8.80;99.90
11664;DHT22;72375;59.302;18.204;2024-03-29T01:44:50;8.80;99.90
11664;DHT22;72375;59.302;18.204;2024-03-29T01:47:36;8.80;99.90
11664;DHT22;72375;59.302;18.204;2024-03-29T01:50:23;8.80;99.90
11664;DHT22;72375;59.302;18.204;2024-03-29T01:53:08;8.80;99.90
11664;DHT22;72375;59.302;18.204;2024-03-29T01:55:54;8.80;99.90
11664;DHT22;72375;59.302;18.204;2024-03-29T01:58:40;8.80;99.90
11664;DHT22;72375;59.302;18.204;2024-03-29T02:01:26;8.80;99.90
11664;DHT22;72375;59.302;18.204;2024-03-29T02:04:12;8.80;99.90
11664;DHT22;72375;59.302;18.204;2024-03-29T02:07:00;8.70;99.90
11664;DHT22;72375;59.302;18.204;2024-03-29T02:09:47;8.70;99.90
11664;DHT22;72375;59.302;18.204;2024-03-29T02:12:33;8.70;99.90
11664;DHT22;72375;59.302;18.204;2024-03-29T02:15:19;8.70;99.90
11664;DHT22;72375;59.302;18.204;2024-03-29T02:18:05;8.70;99.90
11664;DHT22;72375;59.302;18.204;2024-03-29T02:20:51;8.70;99.90
11664;DHT22;72375;59.302;18.204;2024-03-29T02:23:42;8.70;99.90
11664;DHT22;72375;59.302;18.204;2024-03-29T02:26:29;8.70;99.90
11664;DHT22;72375;59.302;18.204;2024-03-29T02:29:17;8.70;99.90
11664;DHT22;72375;59.302;18.204;2024-03-29T02:32:03;8.60;99.90
11664;DHT22;72375;59.302;18.204;2024-03-29T02:34:49;8.60;99.90
11664;DHT22;72375;59.302;18.204;2024-03-29T02:37:35;8.60;99.90
11664;DHT22;72375;59.302;18.204;2024-03-29T02:40:21;8.60;99.90
11664;DHT22;72375;59.302;18.204;2024-03-29T02:43:08;8.60;99.90
11664;DHT22;72375;59.302;18.204;2024-03-29T02:45:53;8.60;99.90
11664;DHT22;72375;59.302;18.204;2024-03-29T02:48:41;8.60;99.90
11664;DHT22;72375;59.302;18.204;2024-03-29T02:51:26;8.60;99.90
11664;DHT22;72375;59.302;18.204;2024-03-29T02:54:11;8.60;99.90
11664;DHT22;72375;59.302;18.204;2024-03-29T02:56:57;8.60;99.90
11664;DHT22;72375;59.302;18.204;2024-03-29T02:59:43;8.50;99.90
11664;DHT22;72375;59.302;18.204;2024-03-29T03:02:28;8.50;99.90
11664;DHT22;72375;59.302;18.204;2024-03-29T03:05:13;8.50;99.90
11664;DHT22;72375;59.302;18.204;2024-03-29T03:07:59;8.40;99.90
11664;DHT22;72375;59.302;18.204;2024-03-29T03:11:04;8.40;99.90
11664;DHT22;72375;59.302;18.204;2024-03-29T03:13:50;8.50;99.90
11664;DHT22;72375;59.302;18.204;2024-03-29T03:16:37;8.50;99.90
11664;DHT22;72375;59.302;18.204;2024-03-29T03:19:22;8.40;99.90
11664;DHT22;72375;59.302;18.204;2024-03-29T03:22:07;8.40;99.90
11664;DHT22;72375;59.302;18.204;2024-03-29T03:24:53;8.40;99.90
11664;DHT22;72375;59.302;18.204;2024-03-29T03:27:37;8.40;99.90
11664;DHT22;72375;59.302;18.204;2024-03-29T03:30:23;8.40;99.90
11664;DHT22;72375;59.302;18.204;2024-03-29T03:33:10;8.40;99.90
11664;DHT22;72375;59.302;18.204;2024-03-29T03:35:55;8.40;99.90
11664;DHT22;72375;59.302;18.204;2024-03-29T03:38:40;8.40;99.90
11664;DHT22;72375;59.302;18.204;2024-03-29T03:41:26;8.40;99.90
11664;DHT22;72375;59.302;18.204;2024-03-29T03:44:10;8.40;99.90
11664;DHT22;72375;59.302;18.204;2024-03-29T03:46:56;8.40;99.90
11664;DHT22;72375;59.302;18.204;2024-03-29T03:49:42;8.40;99.90
11664;DHT22;72375;59.302;18.204;2024-03-29T03:52:28;8.40;99.90
11664;DHT22;72375;59.302;18.204;2024-03-29T03:55:12;8.40;99.90
11664;DHT22;72375;59.302;18.204;2024-03-29T03:57:58;8.40;99.90
11664;DHT22;72375;59.302;18.204;2024-03-29T04:00:43;8.40;99.90
11664;DHT22;72375;59.302;18.204;2024-03-29T04:03:29;8.40;99.90
11664;DHT22;72375;59.302;18.204;2024-03-29T04:06:15;8.40;99.90
11664;DHT22;72375;59.302;18.204;2024-03-29T04:09:00;8.40;99.90
11664;DHT22;72375;59.302;18.204;2024-03-29T04:11:45;8.40;99.90
11664;DHT22;72375;59.302;18.204;2024-03-29T04:14:31;8.40;99.90
11664;DHT22;72375;59.302;18.204;2024-03-29T04:17:16;8.40;99.90
11664;DHT22;72375;59.302;18.204;2024-03-29T04:20:02;8.40;99.90
11664;DHT22;72375;59.302;18.204;2024-03-29T04:22:49;8.40;99.90
11664;DHT22;72375;59.302;18.204;2024-03-29T04:25:34;8.40;99.90
11664;DHT22;72375;59.302;18.204;2024-03-29T04:28:19;8.40;99.90
11664;DHT22;72375;59.302;18.204;2024-03-29T04:31:05;8.40;99.90
11664;DHT22;72375;59.302;18.204;2024-03-29T04:33:49;8.40;99.90
11664;DHT22;72375;59.302;18.204;2024-03-29T04:36:35;8.40;99.90
11664;DHT22;72375;59.302;18.204;2024-03-29T04:39:22;8.40;99.90
11664;DHT22;72375;59.302;18.204;2024-03-29T04:42:08;8.40;99.90
11664;DHT22;72375;59.302;18.204;2024-03-29T04:44:53;8.40;99.90
11664;DHT22;72375;59.302;18.204;2024-03-29T04:47:39;8.40;99.90
11664;DHT22;72375;59.302;18.204;2024-03-29T04:50:24;8.40;99.90
11664;DHT22;72375;59.302;18.204;2024-03-29T04:53:10;8.40;99.90
11664;DHT22;72375;59.302;18.204;2024-03-29T04:55:58;8.40;99.90
11664;DHT22;72375;59.302;18.204;2024-03-29T04:58:43;8.40;99.90
11664;DHT22;72375;59.302;18.204;2024-03-29T05:01:30;8.40;99.90
11664;DHT22;72375;59.302;18.204;2024-03-29T05:04:16;8.50;99.90
11664;DHT22;72375;59.302;18.204;2024-03-29T05:07:09;8.50;99.90
11664;DHT22;72375;59.302;18.204;2024-03-29T05:09:54;8.50;99.90
11664;DHT22;72375;59.302;18.204;2024-03-29T05:12:42;8.50;99.90
11664;DHT22;72375;59.302;18.204;2024-03-29T05:15:27;8.50;99.90
11664;DHT22;72375;59.302;18.204;2024-03-29T05:18:13;8.50;99.90
11664;DHT22;72375;59.302;18.204;2024-03-29T05:20:59;8.50;99.90
11664;DHT22;72375;59.302;18.204;2024-03-29T05:23:44;8.50;99.90
11664;DHT22;72375;59.302;18.204;2024-03-29T05:26:30;8.60;99.90
11664;DHT22;72375;59.302;18.204;2024-03-29T05:29:17;8.50;99.90
11664;DHT22;72375;59.302;18.204;2024-03-29T05:32:03;8.60;99.90
11664;DHT22;72375;59.302;18.204;2024-03-29T05:34:49;8.60;99.90
11664;DHT22;72375;59.302;18.204;2024-03-29T05:37:35;8.60;99.90
11664;DHT22;72375;59.302;18.204;2024-03-29T05:40:21;8.60;99.90
11664;DHT22;72375;59.302;18.204;2024-03-29T05:43:09;8.60;99.90
11664;DHT22;72375;59.302;18.204;2024-03-29T05:45:56;8.60;99.90
11664;DHT22;72375;59.302;18.204;2024-03-29T05:48:41;8.70;99.90
11664;DHT22;72375;59.302;18.204;2024-03-29T05:51:27;8.70;99.90
11664;DHT22;72375;59.302;18.204;2024-03-29T05:54:13;8.70;99.90
11664;DHT22;72375;59.302;18.204;2024-03-29T05:56:59;8.70;99.90
11664;DHT22;72375;59.302;18.204;2024-03-29T05:59:45;8.70;99.90
11664;DHT22;72375;59.302;18.204;2024-03-29T06:02:32;8.70;99.90
11664;DHT22;72375;59.302;18.204;2024-03-29T06:05:18;8.70;99.90
11664;DHT22;72375;59.302;18.204;2024-03-29T06:08:04;8.70;99.90
11664;DHT22;72375;59.302;18.204;2024-03-29T06:10:50;8.70;99.90
11664;DHT22;72375;59.302;18.204;2024-03-29T06:13:36;8.70;99.90
11664;DHT22;72375;59.302;18.204;2024-03-29T06:16:51;8.70;99.90
11664;DHT22;72375;59.302;18.204;2024-03-29T06:20:10;8.70;99.90
11664;DHT22;72375;59.302;18.204;2024-03-29T06:22:56;8.80;99.90
11664;DHT22;72375;59.302;18.204;2024-03-29T06:25:42;8.80;99.90
11664;DHT22;72375;59.302;18.204;2024-03-29T06:28:27;8.80;99.90
11664;DHT22;72375;59.302;18.204;2024-03-29T06:31:13;8.80;99.90
11664;DHT22;72375;59.302;18.204;2024-03-29T06:33:59;8.80;99.90
11664;DHT22;72375;59.302;18.204;2024-03-29T06:36:46;8.80;99.90
11664;DHT22;72375;59.302;18.204;2024-03-29T06:39:31;8.80;99.90
11664;DHT22;72375;59.302;18.204;2024-03-29T06:42:17;8.80;99.90
11664;DHT22;72375;59.302;18.204;2024-03-29T06:45:03;8.80;99.90
11664;DHT22;72375;59.302;18.204;2024-03-29T06:47:49;8.80;99.90
11664;DHT22;72375;59.302;18.204;2024-03-29T06:50:37;8.90;99.90
11664;DHT22;72375;59.302;18.204;2024-03-29T06:53:24;8.90;99.90
11664;DHT22;72375;59.302;18.204;2024-03-29T06:56:09;8.90;99.90
11664;DHT22;72375;59.302;18.204;2024-03-29T06:58:55;8.90;99.90
11664;DHT22;72375;59.302;18.204;2024-03-29T07:01:41;8.90;99.90
11664;DHT22;72375;59.302;18.204;2024-03-29T07:04:27;9.20;99.90
11664;DHT22;72375;59.302;18.204;2024-03-29T07:07:13;9.40;99.90
11664;DHT22;72375;59.302;18.204;2024-03-29T07:10:00;9.30;99.90
11664;DHT22;72375;59.302;18.204;2024-03-29T07:12:46;9.30;99.90
11664;DHT22;72375;59.302;18.204;2024-03-29T07:15:32;9.20;99.90
11664;DHT22;72375;59.302;18.204;2024-03-29T07:18:18;9.20;99.90
11664;DHT22;72375;59.302;18.204;2024-03-29T07:21:04;9.20;99.90
11664;DHT22;72375;59.302;18.204;2024-03-29T07:23:49;9.20;99.90
11664;DHT22;72375;59.302;18.204;2024-03-29T07:26:37;9.20;99.90
11664;DHT22;72375;59.302;18.204;2024-03-29T07:29:22;9.30;99.90
11664;DHT22;72375;59.302;18.204;2024-03-29T07:32:08;9.30;99.90
11664;DHT22;72375;59.302;18.204;2024-03-29T07:34:54;9.30;99.90
11664;DHT22;72375;59.302;18.204;2024-03-29T07:37:42;9.40;99.90
11664;DHT22;72375;59.302;18.204;2024-03-29T07:40:29;9.40;99.90
11664;DHT22;72375;59.302;18.204;2024-03-29T07:46:03;9.50;99.90
11664;DHT22;72375;59.302;18.204;2024-03-29T07:48:51;9.60;99.90
11664;DHT22;72375;59.302;18.204;2024-03-29T07:51:37;9.60;99.90
11664;DHT22;72375;59.302;18.204;2024-03-29T07:54:23;9.60;99.90
11664;DHT22;72375;59.302;18.204;2024-03-29T07:57:09;9.70;99.90
11664;DHT22;72375;59.302;18.204;2024-03-29T07:59:57;9.70;99.90
11664;DHT22;72375;59.302;18.204;2024-03-29T08:02:43;9.70;99.90
11664;DHT22;72375;59.302;18.204;2024-03-29T08:05:28;9.70;99.90
11664;DHT22;72375;59.302;18.204;2024-03-29T08:08:14;9.80;99.90
11664;DHT22;72375;59.302;18.204;2024-03-29T08:11:00;9.80;99.90
11664;DHT22;72375;59.302;18.204;2024-03-29T08:13:45;9.80;99.90
11664;DHT22;72375;59.302;18.204;2024-03-29T08:16:32;9.90;99.90
11664;DHT22;72375;59.302;18.204;2024-03-29T08:19:18;9.80;99.90
11664;DHT22;72375;59.302;18.204;2024-03-29T08:22:04;9.80;99.90
11664;DHT22;72375;59.302;18.204;2024-03-29T08:24:50;9.80;99.90
11664;DHT22;72375;59.302;18.204;2024-03-29T08:27:35;9.80;99.90
11664;DHT22;72375;59.302;18.204;2024-03-29T08:30:21;9.90;99.90
11664;DHT22;72375;59.302;18.204;2024-03-29T08:33:08;10.00;99.90
11664;DHT22;72375;59.302;18.204;2024-03-29T08:35:54;10.00;99.90
11664;DHT22;72375;59.302;18.204;2024-03-29T08:38:39;10.00;99.90
11664;DHT22;72375;59.302;18.204;2024-03-29T08:41:27;10.00;99.90
11664;DHT22;72375;59.302;18.204;2024-03-29T08:44:12;10.10;99.90
11664;DHT22;72375;59.302;18.204;2024-03-29T08:46:58;10.10;99.90
11664;DHT22;72375;59.302;18.204;2024-03-29T08:49:46;10.10;99.90
11664;DHT22;72375;59.302;18.204;2024-03-29T08:52:32;10.20;99.90
11664;DHT22;72375;59.302;18.204;2024-03-29T08:55:18;10.10;99.90
11664;DHT22;72375;59.302;18.204;2024-03-29T08:58:04;10.20;99.90
11664;DHT22;72375;59.302;18.204;2024-03-29T09:00:53;10.20;99.90
11664;DHT22;72375;59.302;18.204;2024-03-29T09:03:39;10.20;99.90
11664;DHT22;72375;59.302;18.204;2024-03-29T09:06:26;10.10;99.90
11664;DHT22;72375;59.302;18.204;2024-03-29T09:09:11;10.10;99.90
11664;DHT22;72375;59.302;18.204;2024-03-29T09:11:58;10.10;99.90
11664;DHT22;72375;59.302;18.204;2024-03-29T09:14:44;10.10;99.90
11664;DHT22;72375;59.302;18.204;2024-03-29T09:17:29;10.00;99.90
11664;DHT22;72375;59.302;18.204;2024-03-29T09:20:15;10.10;99.90
11664;DHT22;72375;59.302;18.204;2024-03-29T09:23:03;10.10;99.90
11664;DHT22;72375;59.302;18.204;2024-03-29T09:25:49;10.20;99.90
11664;DHT22;72375;59.302;18.204;2024-03-29T09:28:34;10.30;99.90
11664;DHT22;72375;59.302;18.204;2024-03-29T09:31:21;10.50;99.90
11664;DHT22;72375;59.302;18.204;2024-03-29T09:34:07;10.70;99.90
11664;DHT22;72375;59.302;18.204;2024-03-29T09:36:53;10.90;99.90
11664;DHT22;72375;59.302;18.204;2024-03-29T09:39:40;11.00;99.90
11664;DHT22;72375;59.302;18.204;2024-03-29T09:42:26;11.30;99.90
11664;DHT22;72375;59.302;18.204;2024-03-29T09:45:15;11.30;99.90
11664;DHT22;72375;59.302;18.204;2024-03-29T09:48:02;11.40;99.90
11664;DHT22;72375;59.302;18.204;2024-03-29T09:50:49;11.50;99.90
11664;DHT22;72375;59.302;18.204;2024-03-29T09:53:36;11.50;99.90
11664;DHT22;72375;59.302;18.204;2024-03-29T09:56:25;11.50;99.90
11664;DHT22;72375;59.302;18.204;2024-03-29T09:59:11;11.50;99.90
11664;DHT22;72375;59.302;18.204;2024-03-29T10:01:58;11.50;99.90
11664;DHT22;72375;59.302;18.204;2024-03-29T10:04:46;11.60;99.90
11664;DHT22;72375;59.302;18.204;2024-03-29T10:07:33;11.60;99.90
11664;DHT22;72375;59.302;18.204;2024-03-29T10:10:21;11.70;99.90
11664;DHT22;72375;59.302;18.204;2024-03-29T10:13:09;11.70;99.90
11664;DHT22;72375;59.302;18.204;2024-03-29T10:15:55;11.80;99.90
11664;DHT22;72375;59.302;18.204;2024-03-29T10:18:41;11.80;99.90
11664;DHT22;72375;59.302;18.204;2024-03-29T10:21:28;11.90;99.90
11664;DHT22;72375;59.302;18.204;2024-03-29T10:24:14;12.00;99.90
11664;DHT22;72375;59.302;18.204;2024-03-29T10:27:01;12.10;99.90
11664;DHT22;72375;59.302;18.204;2024-03-29T10:29:48;12.10;99.90
11664;DHT22;72375;59.302;18.204;2024-03-29T10:32:37;12.20;99.90
11664;DHT22;72375;59.302;18.204;2024-03-29T10:35:25;12.20;99.90
11664;DHT22;72375;59.302;18.204;2024-03-29T10:38:12;12.30;99.90
11664;DHT22;72375;59.302;18.204;2024-03-29T10:40:58;12.20;99.90
11664;DHT22;72375;59.302;18.204;2024-03-29T10:43:45;12.10;99.90
11664;DHT22;72375;59.302;18.204;2024-03-29T10:46:34;12.10;99.90
11664;DHT22;72375;59.302;18.204;2024-03-29T10:49:23;12.00;99.90
11664;DHT22;72375;59.302;18.204;2024-03-29T10:52:10;11.90;99.90
11664;DHT22;72375;59.302;18.204;2024-03-29T10:54:58;11.90;99.90
11664;DHT22;72375;59.302;18.204;2024-03-29T10:57:44;11.90;99.90
11664;DHT22;72375;59.302;18.204;2024-03-29T11:00:33;11.90;99.90
11664;DHT22;72375;59.302;18.204;2024-03-29T11:03:31;11.90;99.90
11664;DHT22;72375;59.302;18.204;2024-03-29T11:06:21;11.80;99.90
11664;DHT22;72375;59.302;18.204;2024-03-29T11:09:13;11.90;99.90
11664;DHT22;72375;59.302;18.204;2024-03-29T11:12:01;11.90;99.90
11664;DHT22;72375;59.302;18.204;2024-03-29T11:14:52;11.90;99.90
11664;DHT22;72375;59.302;18.204;2024-03-29T11:17:40;11.90;99.90
11664;DHT22;72375;59.302;18.204;2024-03-29T11:20:28;12.00;99.90
11664;DHT22;72375;59.302;18.204;2024-03-29T11:23:26;12.00;99.90
11664;DHT22;72375;59.302;18.204;2024-03-29T11:26:14;12.00;99.90
11664;DHT22;72375;59.302;18.204;2024-03-29T11:29:00;12.10;99.90
11664;DHT22;72375;59.302;18.204;2024-03-29T11:31:47;12.00;99.90
11664;DHT22;72375;59.302;18.204;2024-03-29T11:34:35;12.00;99.90
11664;DHT22;72375;59.302;18.204;2024-03-29T11:37:29;12.00;99.90
11664;DHT22;72375;59.302;18.204;2024-03-29T11:40:15;12.00;99.90
11664;DHT22;72375;59.302;18.204;2024-03-29T11:43:00;12.10;99.90
11664;DHT22;72375;59.302;18.204;2024-03-29T11:45:48;12.60;99.90
11664;DHT22;72375;59.302;18.204;2024-03-29T11:48:36;13.40;99.90
11664;DHT22;72375;59.302;18.204;2024-03-29T11:51:23;14.50;99.90
11664;DHT22;72375;59.302;18.204;2024-03-29T11:54:12;15.30;99.90
11664;DHT22;72375;59.302;18.204;2024-03-29T11:56:57;15.80;99.90
11664;DHT22;72375;59.302;18.204;2024-03-29T11:59:42;16.20;99.90
11664;DHT22;72375;59.302;18.204;2024-03-29T12:02:28;16.30;99.90
11664;DHT22;72375;59.302;18.204;2024-03-29T12:05:14;16.40;99.90
11664;DHT22;72375;59.302;18.204;2024-03-29T12:08:00;16.40;99.90
11664;DHT22;72375;59.302;18.204;2024-03-29T12:10:47;16.80;99.90
11664;DHT22;72375;59.302;18.204;2024-03-29T12:13:33;17.40;99.90
11664;DHT22;72375;59.302;18.204;2024-03-29T12:16:19;17.70;99.90
11664;DHT22;72375;59.302;18.204;2024-03-29T12:19:04;17.90;99.90
11664;DHT22;72375;59.302;18.204;2024-03-29T12:21:51;18.30;99.90
11664;DHT22;72375;59.302;18.204;2024-03-29T12:24:37;18.70;99.90
11664;DHT22;72375;59.302;18.204;2024-03-29T12:27:24;18.90;99.90
11664;DHT22;72375;59.302;18.204;2024-03-29T12:30:10;18.60;99.90
11664;DHT22;72375;59.302;18.204;2024-03-29T12:33:01;18.30;99.90
11664;DHT22;72375;59.302;18.204;2024-03-29T12:35:48;17.90;99.90
11664;DHT22;72375;59.302;18.204;2024-03-29T12:38:34;17.70;99.90
11664;DHT22;72375;59.302;18.204;2024-03-29T12:41:21;18.00;99.90
11664;DHT22;72375;59.302;18.204;2024-03-29T12:44:10;18.90;99.90
11664;DHT22;72375;59.302;18.204;2024-03-29T12:46:56;19.80;99.90
11664;DHT22;72375;59.302;18.204;2024-03-29T12:49:42;20.60;99.70
11664;DHT22;72375;59.302;18.204;2024-03-29T12:52:27;21.10;98.00
11664;DHT22;72375;59.302;18.204;2024-03-29T12:55:13;22.10;96.20
11664;DHT22;72375;59.302;18.204;2024-03-29T12:58:02;22.70;95.70
11664;DHT22;72375;59.302;18.204;2024-03-29T13:00:50;23.00;94.40
11664;DHT22;72375;59.302;18.204;2024-03-29T13:03:35;22.20;93.20
11664;DHT22;72375;59.302;18.204;2024-03-29T13:06:22;21.40;93.70
11664;DHT22;72375;59.302;18.204;2024-03-29T13:09:08;20.70;93.80
11664;DHT22;72375;59.302;18.204;2024-03-29T13:11:54;20.10;94.40
11664;DHT22;72375;59.302;18.204;2024-03-29T13:14:41;19.70;94.30
11664;DHT22;72375;59.302;18.204;2024-03-29T13:17:28;19.20;94.10
11664;DHT22;72375;59.302;18.204;2024-03-29T13:20:15;18.70;95.80
11664;DHT22;72375;59.302;18.204;2024-03-29T13:23:01;18.60;95.90
11664;DHT22;72375;59.302;18.204;2024-03-29T13:25:47;18.50;95.40
11664;DHT22;72375;59.302;18.204;2024-03-29T13:28:33;18.30;95.80
11664;DHT22;72375;59.302;18.204;2024-03-29T13:31:18;18.30;95.00
11664;DHT22;72375;59.302;18.204;2024-03-29T13:34:05;18.20;94.60
11664;DHT22;72375;59.302;18.204;2024-03-29T13:36:57;18.10;94.60
11664;DHT22;72375;59.302;18.204;2024-03-29T13:39:42;17.90;94.80
11664;DHT22;72375;59.302;18.204;2024-03-29T13:42:28;17.70;94.60
11664;DHT22;72375;59.302;18.204;2024-03-29T13:45:15;17.70;94.50
11664;DHT22;72375;59.302;18.204;2024-03-29T13:48:00;18.70;93.40
11664;DHT22;72375;59.302;18.204;2024-03-29T13:50:47;19.80;92.30
11664;DHT22;72375;59.302;18.204;2024-03-29T13:53:34;19.80;90.70
11664;DHT22;72375;59.302;18.204;2024-03-29T13:56:20;19.30;90.70
11664;DHT22;72375;59.302;18.204;2024-03-29T13:59:06;18.90;91.80
11664;DHT22;72375;59.302;18.204;2024-03-29T14:01:52;18.80;91.90
11664;DHT22;72375;59.302;18.204;2024-03-29T14:04:38;19.20;91.90
11664;DHT22;72375;59.302;18.204;2024-03-29T14:07:25;19.60;92.00
11664;DHT22;72375;59.302;18.204;2024-03-29T14:10:10;19.60;90.20
11664;DHT22;72375;59.302;18.204;2024-03-29T14:12:57;19.20;89.40
11664;DHT22;72375;59.302;18.204;2024-03-29T14:15:44;18.80;90.60
11664;DHT22;72375;59.302;18.204;2024-03-29T14:18:29;18.70;91.10
11664;DHT22;72375;59.302;18.204;2024-03-29T14:21:15;18.80;90.00
11664;DHT22;72375;59.302;18.204;2024-03-29T14:24:02;18.80;90.20
11664;DHT22;72375;59.302;18.204;2024-03-29T14:26:48;18.70;90.30
11664;DHT22;72375;59.302;18.204;2024-03-29T14:29:34;18.70;90.50
11664;DHT22;72375;59.302;18.204;2024-03-29T14:32:21;18.60;90.20
11664;DHT22;72375;59.302;18.204;2024-03-29T14:35:07;18.50;89.60
11664;DHT22;72375;59.302;18.204;2024-03-29T14:37:54;18.20;90.00
11664;DHT22;72375;59.302;18.204;2024-03-29T14:40:42;17.70;91.00
11664;DHT22;72375;59.302;18.204;2024-03-29T14:43:27;17.40;91.40
11664;DHT22;72375;59.302;18.204;2024-03-29T14:46:13;17.10;92.10
11664;DHT22;72375;59.302;18.204;2024-03-29T14:48:59;16.80;92.00
11664;DHT22;72375;59.302;18.204;2024-03-29T14:51:45;16.70;92.10
11664;DHT22;72375;59.302;18.204;2024-03-29T14:54:30;16.50;93.70
11664;DHT22;72375;59.302;18.204;2024-03-29T14:57:18;16.30;94.10
11664;DHT22;72375;59.302;18.204;2024-03-29T15:00:07;16.20;94.70
11664;DHT22;72375;59.302;18.204;2024-03-29T15:02:54;16.10;95.60
11664;DHT22;72375;59.302;18.204;2024-03-29T15:05:39;16.00;96.00
11664;DHT22;72375;59.302;18.204;2024-03-29T15:08:26;15.90;95.40
11664;DHT22;72375;59.302;18.204;2024-03-29T15:11:12;15.90;95.50
11664;DHT22;72375;59.302;18.204;2024-03-29T15:13:59;15.80;96.30
11664;DHT22;72375;59.302;18.204;2024-03-29T15:16:44;15.80;96.40
11664;DHT22;72375;59.302;18.204;2024-03-29T15:19:31;15.80;96.10
11664;DHT22;72375;59.302;18.204;2024-03-29T15:22:17;15.80;96.50
11664;DHT22;72375;59.302;18.204;2024-03-29T15:25:03;15.90;96.20
11664;DHT22;72375;59.302;18.204;2024-03-29T15:27:49;16.00;96.10
11664;DHT22;72375;59.302;18.204;2024-03-29T15:30:53;16.10;96.60
11664;DHT22;72375;59.302;18.204;2024-03-29T15:33:42;16.20;96.50
11664;DHT22;72375;59.302;18.204;2024-03-29T15:36:27;16.70;95.10
11664;DHT22;72375;59.302;18.204;2024-03-29T15:39:13;16.90;95.30
11664;DHT22;72375;59.302;18.204;2024-03-29T15:42:04;17.70;94.00
11664;DHT22;72375;59.302;18.204;2024-03-29T15:44:49;18.50;92.40
11664;DHT22;72375;59.302;18.204;2024-03-29T15:47:36;18.90;91.90
11664;DHT22;72375;59.302;18.204;2024-03-29T15:50:22;19.00;91.00
11664;DHT22;72375;59.302;18.204;2024-03-29T15:53:08;18.90;90.70
11664;DHT22;72375;59.302;18.204;2024-03-29T15:55:53;19.50;90.60
11664;DHT22;72375;59.302;18.204;2024-03-29T15:58:39;20.10;89.30
11664;DHT22;72375;59.302;18.204;2024-03-29T16:01:25;20.60;87.50
11664;DHT22;72375;59.302;18.204;2024-03-29T16:04:12;20.00;86.70
11664;DHT22;72375;59.302;18.204;2024-03-29T16:06:57;19.70;88.20
11664;DHT22;72375;59.302;18.204;2024-03-29T16:09:43;19.50;88.00
11664;DHT22;72375;59.302;18.204;2024-03-29T16:12:30;18.90;87.80
11664;DHT22;72375;59.302;18.204;2024-03-29T16:15:15;19.00;89.00
11664;DHT22;72375;59.302;18.204;2024-03-29T16:18:01;19.60;87.90
11664;DHT22;72375;59.302;18.204;2024-03-29T16:20:48;20.10;85.60
11664;DHT22;72375;59.302;18.204;2024-03-29T16:23:32;20.20;84.90
11664;DHT22;72375;59.302;18.204;2024-03-29T16:26:18;19.80;85.30
11664;DHT22;72375;59.302;18.204;2024-03-29T16:29:03;18.70;87.10
11664;DHT22;72375;59.302;18.204;2024-03-29T16:31:53;17.70;90.30
11664;DHT22;72375;59.302;18.204;2024-03-29T16:34:38;16.90;91.60
11664;DHT22;72375;59.302;18.204;2024-03-29T16:37:25;16.40;92.70
11664;DHT22;72375;59.302;18.204;2024-03-29T16:40:10;16.00;93.60
11664;DHT22;72375;59.302;18.204;2024-03-29T16:42:57;15.70;94.40
11664;DHT22;72375;59.302;18.204;2024-03-29T16:45:42;15.50;95.00
11664;DHT22;72375;59.302;18.204;2024-03-29T16:48:28;15.30;95.50
11664;DHT22;72375;59.302;18.204;2024-03-29T16:51:12;15.10;96.10
11664;DHT22;72375;59.302;18.204;2024-03-29T16:53:59;15.00;96.50
11664;DHT22;72375;59.302;18.204;2024-03-29T16:56:44;14.80;96.70
11664;DHT22;72375;59.302;18.204;2024-03-29T16:59:30;14.70;97.00
11664;DHT22;72375;59.302;18.204;2024-03-29T17:02:18;14.60;97.50
11664;DHT22;72375;59.302;18.204;2024-03-29T17:05:04;14.50;97.50
11664;DHT22;72375;59.302;18.204;2024-03-29T17:07:49;14.30;97.70
11664;DHT22;72375;59.302;18.204;2024-03-29T17:10:36;14.20;97.40
11664;DHT22;72375;59.302;18.204;2024-03-29T17:13:20;14.10;97.40
11664;DHT22;72375;59.302;18.204;2024-03-29T17:16:06;14.00;97.90
11664;DHT22;72375;59.302;18.204;2024-03-29T17:18:50;13.90;98.50
11664;DHT22;72375;59.302;18.204;2024-03-29T17:21:36;13.80;98.30
11664;DHT22;72375;59.302;18.204;2024-03-29T17:24:21;13.70;99.10